Iaşi, Rumania

6:23 AM EET en Octubre 26, 2014 (GMT +0200)
Iasi | Change Station
CLOSE
Current Station
Aeropuerto
Location: Iasi,
Altura: 338 ft
Estaciones meteorológicas cercanas

Alt 338 ft 47.16 °N, 27.63 °E | Updated 23 minutes ago

Clear
Despejado
21 ° F
Sensación térmica 15 ° F
N
5
Viento Variable Viento desde OSO

Hoy
Alta -- | Baja -- ° F
--% Posibilidad de precipitaciones
Ayer
Alta -- | Baja -- ° F
Precip. -- pul
6:43 AM 5:02 PM
Creciente, 6% visible
Presión 30.54 pul
Visibilidad -9999.0 Millas
Nubes
Vientos helados 15 ° F
Punto de rocío 21 ° F
Humedad 100%
Precipitaciones 0.00 pul
Espesor de la nieve No disponible.
UV No disponible.
Polen No disponible.
Calidad del aire No disponible.
Flu Activity No disponible.
METAR LRIA 260400Z 25004KT 210V290 CAVOK M06/M06 Q1034

More Conditions Fewer Conditions

Presión 30.54 pul
Visibilidad -9999.0 Millas
Nubes
Vientos helados 15 ° F
Punto de rocío 21 ° F
Humedad 100%
Precipitaciones 0.00 pul
Espesor de la nieve No disponible.
UV No disponible.
Polen No disponible.
Calidad del aire No disponible.
Flu Activity No disponible.
METAR LRIA 260400Z 25004KT 210V290 CAVOK M06/M06 Q1034

More Conditions Fewer Conditions

10-Day Weather Forecast

Almanac

Astronomía

Oct. 26, 2014 Salida Puesta
Hora real 6:43 AM EET 5:02 PM EET
Crepúsculo civil 6:11 AM EET 5:34 PM EET
Crepúsculo náutico 5:35 AM EET 6:10 PM EET
Crepúsculo astronómico 5:00 AM EET 6:45 PM EET
Luna 9:08 AM EET 6:51 PM EET
Horas de luz 11h 22m
Horas de luz
10h 19m
Tomorrow will be 3m 9s shorter.
Creciente, 6% of the Moon is Illuminated
Hoy
Creciente
Oct 30
Cuarto creciente
Nov 6
Luna llena
Nov 14
Cuarto menguante
Nov 22
Nueva

Extremos de ayer

Máximos del país Bajas del país

Community

WunderPhotos

Upload Photos

1,765,110 ¡fotos cargadas!

Nearby

Calidad del aire

Not available.

Grosos de nieve

Not available.

Actividad de terremotos

Ciudad Distance Mag. Tiempo y dato
No hay informes recientes de la actividad sísmica.
Magnitud mínima muestra es 2,5.

Temperaturas de aguas costeras

Lugar Temperatura
Sin partes meteorológicos de las estaciones

Estaciones meteorológicas cercanas